createdAt,value
2018-07-08T00:00:24.561Z,19.79
2018-07-08T00:01:24.555Z,19.79
2018-07-08T00:02:24.542Z,19.79
2018-07-08T00:03:24.537Z,19.86
2018-07-08T00:04:24.525Z,19.80
2018-07-08T00:05:24.520Z,19.85
2018-07-08T00:06:24.508Z,19.78
2018-07-08T00:07:24.505Z,19.82
2018-07-08T00:08:24.498Z,19.76
2018-07-08T00:09:24.484Z,19.83
2018-07-08T00:10:24.473Z,19.75
2018-07-08T00:11:24.471Z,19.82
2018-07-08T00:12:24.458Z,19.76
2018-07-08T00:13:24.449Z,19.67
2018-07-08T00:14:24.443Z,19.76
2018-07-08T00:15:24.438Z,19.79
2018-07-08T00:16:24.426Z,19.76
2018-07-08T00:17:24.415Z,19.79
2018-07-08T00:18:24.412Z,19.80
2018-07-08T00:19:24.398Z,19.86
2018-07-08T00:20:24.395Z,19.87
2018-07-08T00:21:24.387Z,19.85
2018-07-08T00:22:24.376Z,19.86
2018-07-08T00:23:24.367Z,19.86
2018-07-08T00:24:24.360Z,19.85
2018-07-08T00:25:24.346Z,19.86
2018-07-08T00:26:24.339Z,19.65
2018-07-08T00:27:24.335Z,19.65
2018-07-08T00:28:24.327Z,19.57
2018-07-08T00:29:24.313Z,19.55
2018-07-08T00:30:24.308Z,19.50
2018-07-08T00:31:24.300Z,19.50
2018-07-08T00:32:24.294Z,19.45
2018-07-08T00:33:24.279Z,19.38
2018-07-08T00:34:24.275Z,19.40
2018-07-08T00:35:24.266Z,19.38
2018-07-08T00:36:24.257Z,19.45
2018-07-08T00:37:24.243Z,19.47
2018-07-08T00:38:24.243Z,19.55
2018-07-08T00:39:24.236Z,19.57
2018-07-08T00:40:24.218Z,19.53
2018-07-08T00:41:24.214Z,19.57
2018-07-08T00:42:24.209Z,19.52
2018-07-08T00:43:24.193Z,19.50
2018-07-08T00:44:24.184Z,19.53
2018-07-08T00:45:24.177Z,19.45
2018-07-08T00:46:24.173Z,19.32
2018-07-08T00:47:24.156Z,19.27
2018-07-08T00:48:24.148Z,19.24
2018-07-08T00:49:24.139Z,19.34
2018-07-08T00:50:24.130Z,19.27
2018-07-08T00:51:24.120Z,19.23
2018-07-08T00:52:24.116Z,19.27
2018-07-08T00:53:24.104Z,19.34
2018-07-08T00:54:24.104Z,19.30
2018-07-08T00:55:24.090Z,19.35
2018-07-08T00:56:24.081Z,19.35
2018-07-08T00:57:24.068Z,19.42
2018-07-08T00:58:24.067Z,19.31
2018-07-08T00:59:24.056Z,19.31
2018-07-08T01:00:24.051Z,19.35
2018-07-08T01:01:24.042Z,19.32
2018-07-08T01:02:24.034Z,19.39
2018-07-08T01:03:24.016Z,19.23
2018-07-08T01:04:24.013Z,19.27
2018-07-08T01:05:24.000Z,19.13
2018-07-08T01:06:24.005Z,19.06
2018-07-08T01:07:23.988Z,19.07
2018-07-08T01:08:23.979Z,19.07
2018-07-08T01:09:23.963Z,19.12
2018-07-08T01:10:23.961Z,19.07
2018-07-08T01:11:23.950Z,19.10
2018-07-08T01:12:23.941Z,19.13
2018-07-08T01:13:23.934Z,19.13
2018-07-08T01:14:23.917Z,19.12
2018-07-08T01:15:23.918Z,19.16
2018-07-08T01:16:23.908Z,19.09
2018-07-08T01:17:23.898Z,19.13
2018-07-08T01:18:23.887Z,18.99
2018-07-08T01:19:23.877Z,19.01
2018-07-08T01:20:23.871Z,19.02
2018-07-08T01:21:23.863Z,18.94
2018-07-08T01:22:23.848Z,18.91
2018-07-08T01:23:23.836Z,18.99
2018-07-08T01:24:23.836Z,18.83
2018-07-08T01:25:23.823Z,18.84
2018-07-08T01:26:23.818Z,18.87
2018-07-08T01:27:23.801Z,18.75
2018-07-08T01:28:23.791Z,18.71
2018-07-08T01:29:23.783Z,18.66
2018-07-08T01:30:23.777Z,18.69
2018-07-08T01:31:23.765Z,18.75
2018-07-08T01:32:23.755Z,18.76
2018-07-08T01:33:23.747Z,18.79
2018-07-08T01:34:23.737Z,18.78
2018-07-08T01:35:23.736Z,18.75
2018-07-08T01:36:23.724Z,18.89
2018-07-08T01:37:23.709Z,18.72
2018-07-08T01:38:23.703Z,18.84
2018-07-08T01:39:23.693Z,18.89
2018-07-08T01:40:23.685Z,18.91
2018-07-08T01:41:23.677Z,18.86
2018-07-08T01:42:23.663Z,18.94
2018-07-08T01:43:23.654Z,18.90
2018-07-08T01:44:23.759Z,18.90
2018-07-08T01:45:23.644Z,18.90
2018-07-08T01:46:23.638Z,18.84
2018-07-08T01:47:23.624Z,18.76
2018-07-08T01:48:23.618Z,18.66
2018-07-08T01:49:23.600Z,18.64
2018-07-08T01:50:23.599Z,18.64
2018-07-08T01:51:23.588Z,18.65
2018-07-08T01:52:23.581Z,18.76
2018-07-08T01:53:23.564Z,18.71
2018-07-08T01:54:23.556Z,18.66
2018-07-08T01:55:23.555Z,18.59
2018-07-08T01:56:23.539Z,18.51
2018-07-08T01:57:23.524Z,18.46
2018-07-08T01:58:23.524Z,18.44
2018-07-08T01:59:23.517Z,18.46
2018-07-08T02:00:23.511Z,18.54
2018-07-08T02:01:23.497Z,18.49
2018-07-08T02:02:23.479Z,18.57
2018-07-08T02:03:23.474Z,18.57
2018-07-08T02:04:23.470Z,18.66
2018-07-08T02:05:23.460Z,18.56
2018-07-08T02:06:23.446Z,18.57
2018-07-08T02:07:23.433Z,18.51
2018-07-08T02:08:23.531Z,18.46
2018-07-08T02:09:23.419Z,18.51
2018-07-08T02:10:23.405Z,18.53
2018-07-08T02:11:23.396Z,18.62
2018-07-08T02:12:23.395Z,18.69
2018-07-08T02:13:23.381Z,18.69
2018-07-08T02:14:23.472Z,18.65
2018-07-08T02:15:23.358Z,18.65
2018-07-08T02:16:23.356Z,18.64
2018-07-08T02:17:23.346Z,18.57
2018-07-08T02:18:23.335Z,18.62
2018-07-08T02:19:23.330Z,18.62
2018-07-08T02:20:23.422Z,18.66
2018-07-08T02:21:23.304Z,18.68
2018-07-08T02:22:23.296Z,18.69
2018-07-08T02:23:23.286Z,18.71
2018-07-08T02:24:23.274Z,18.66
2018-07-08T02:25:23.266Z,18.66
2018-07-08T02:26:23.366Z,18.66
2018-07-08T02:27:23.263Z,18.60
2018-07-08T02:28:23.239Z,18.65
2018-07-08T02:29:23.229Z,18.65
2018-07-08T02:30:23.226Z,18.60
2018-07-08T02:31:23.212Z,18.51
2018-07-08T02:32:23.310Z,18.44
2018-07-08T02:33:23.193Z,18.42
2018-07-08T02:34:23.187Z,18.42
2018-07-08T02:35:23.180Z,18.35
2018-07-08T02:36:23.166Z,18.21
2018-07-08T02:37:23.152Z,18.34
2018-07-08T02:38:23.149Z,18.38
2018-07-08T02:39:23.137Z,18.38
2018-07-08T02:40:23.131Z,18.50
2018-07-08T02:41:23.118Z,18.44
2018-07-08T02:42:23.115Z,18.41
2018-07-08T02:43:23.106Z,18.42
2018-07-08T02:44:23.097Z,18.36
2018-07-08T02:45:23.081Z,18.39
2018-07-08T02:46:23.070Z,18.38
2018-07-08T02:47:23.062Z,18.31
2018-07-08T02:48:23.050Z,18.28
2018-07-08T02:49:23.041Z,18.25
2018-07-08T02:50:23.029Z,18.20
2018-07-08T02:51:23.025Z,18.20
2018-07-08T02:52:23.021Z,18.13
2018-07-08T02:53:23.010Z,18.23
2018-07-08T02:54:23.005Z,18.20
2018-07-08T02:55:22.992Z,18.17
2018-07-08T02:56:22.972Z,18.16
2018-07-08T02:57:22.968Z,18.20
2018-07-08T02:58:22.963Z,18.11
2018-07-08T02:59:22.952Z,18.14
2018-07-08T03:00:22.935Z,18.16
2018-07-08T03:01:22.925Z,18.25
2018-07-08T03:02:22.916Z,18.19
2018-07-08T03:03:22.912Z,18.19
2018-07-08T03:04:22.898Z,18.17
2018-07-08T03:05:22.887Z,18.13
2018-07-08T03:06:22.877Z,17.99
2018-07-08T03:07:22.868Z,18.01
2018-07-08T03:08:22.864Z,18.01
2018-07-08T03:09:22.850Z,18.09
2018-07-08T03:10:22.840Z,18.05
2018-07-08T03:11:22.832Z,18.04
2018-07-08T03:12:22.824Z,18.10
2018-07-08T03:13:22.817Z,18.17
2018-07-08T03:14:22.807Z,18.21
2018-07-08T03:15:22.788Z,18.11
2018-07-08T03:16:22.789Z,18.13
2018-07-08T03:17:22.770Z,18.10
2018-07-08T03:18:22.763Z,18.10
2018-07-08T03:19:22.758Z,18.13
2018-07-08T03:20:22.740Z,18.14
2018-07-08T03:21:22.729Z,18.19
2018-07-08T03:22:22.721Z,18.25
2018-07-08T03:23:22.718Z,18.25
2018-07-08T03:24:22.709Z,18.21
2018-07-08T03:25:22.693Z,18.21
2018-07-08T03:26:22.682Z,18.17
2018-07-08T03:27:22.680Z,18.25
2018-07-08T03:28:22.671Z,18.19
2018-07-08T03:29:22.657Z,18.02
2018-07-08T03:30:22.644Z,18.02
2018-07-08T03:31:22.640Z,18.05
2018-07-08T03:32:22.624Z,18.01
2018-07-08T03:33:22.660Z,18.11
2018-07-08T03:34:22.606Z,18.07
2018-07-08T03:35:22.594Z,18.04
2018-07-08T03:36:22.587Z,18.05
2018-07-08T03:37:22.584Z,18.07
2018-07-08T03:38:22.766Z,18.14
2018-07-08T03:39:22.557Z,18.13
2018-07-08T03:40:22.549Z,18.05
2018-07-08T03:41:22.533Z,18.09
2018-07-08T03:42:22.526Z,18.16
2018-07-08T03:43:22.523Z,18.02
2018-07-08T03:44:22.516Z,17.99
2018-07-08T03:45:22.500Z,17.96
2018-07-08T03:46:22.495Z,17.87
2018-07-08T03:47:22.479Z,17.74
2018-07-08T03:48:22.466Z,17.74
2018-07-08T03:49:22.458Z,17.71
2018-07-08T03:50:22.450Z,17.68
2018-07-08T03:51:22.438Z,17.73
2018-07-08T03:52:22.428Z,17.86
2018-07-08T03:53:22.422Z,17.80
2018-07-08T03:54:22.411Z,17.86
2018-07-08T03:55:22.403Z,17.86
2018-07-08T03:56:22.397Z,17.74
2018-07-08T03:57:22.380Z,17.74
2018-07-08T03:58:22.375Z,17.71
2018-07-08T03:59:22.356Z,17.83
2018-07-08T04:00:22.349Z,17.74
2018-07-08T04:01:22.338Z,17.84
2018-07-08T04:02:22.336Z,17.84
2018-07-08T04:03:22.327Z,17.83
2018-07-08T04:04:22.309Z,17.84
2018-07-08T04:05:22.303Z,17.94
2018-07-08T04:06:22.287Z,17.81
2018-07-08T04:07:22.284Z,17.91
2018-07-08T04:08:22.274Z,17.73
2018-07-08T04:09:22.259Z,17.77
2018-07-08T04:10:22.260Z,17.74
2018-07-08T04:11:22.250Z,17.68
2018-07-08T04:12:22.241Z,17.70
2018-07-08T04:13:22.222Z,17.70
2018-07-08T04:14:22.212Z,17.71
2018-07-08T04:15:22.207Z,17.68
2018-07-08T04:16:22.192Z,17.73
2018-07-08T04:17:22.186Z,17.83
2018-07-08T04:18:22.174Z,17.74
2018-07-08T04:19:22.165Z,17.70
2018-07-08T04:20:22.161Z,17.71
2018-07-08T04:21:22.143Z,17.74
2018-07-08T04:22:22.133Z,17.66
2018-07-08T04:23:22.164Z,17.71
2018-07-08T04:24:22.119Z,17.71
2018-07-08T04:25:22.102Z,17.70
2018-07-08T04:26:22.094Z,17.65
2018-07-08T04:27:22.084Z,17.54
2018-07-08T04:28:22.082Z,17.51
2018-07-08T04:29:22.063Z,17.49
2018-07-08T04:30:22.069Z,17.47
2018-07-08T04:31:22.043Z,17.55
2018-07-08T04:32:22.032Z,17.62
2018-07-08T04:33:22.027Z,17.53
2018-07-08T04:34:22.018Z,17.57
2018-07-08T04:35:22.002Z,17.58
2018-07-08T04:36:21.993Z,17.63
2018-07-08T04:37:21.983Z,17.58
2018-07-08T04:38:21.973Z,17.55
2018-07-08T04:39:21.961Z,17.60
2018-07-08T04:40:21.959Z,17.71
2018-07-08T04:41:21.941Z,17.54
2018-07-08T04:42:21.931Z,17.55
2018-07-08T04:43:21.925Z,17.47
2018-07-08T04:44:21.914Z,17.47
2018-07-08T04:45:21.907Z,17.43
2018-07-08T04:46:21.891Z,17.39
2018-07-08T04:47:21.880Z,17.39
2018-07-08T04:48:21.873Z,17.39
2018-07-08T04:49:21.909Z,17.36
2018-07-08T04:50:21.853Z,17.40
2018-07-08T04:51:21.845Z,17.35
2018-07-08T04:52:21.830Z,17.38
2018-07-08T04:53:21.820Z,17.33
2018-07-08T04:54:21.812Z,17.33
2018-07-08T04:55:21.800Z,17.33
2018-07-08T04:56:21.792Z,17.30
2018-07-08T04:57:21.783Z,17.32
2018-07-08T04:58:21.774Z,17.30
2018-07-08T04:59:21.759Z,17.36
2018-07-08T05:00:21.754Z,17.33
2018-07-08T05:01:21.744Z,17.32
2018-07-08T05:02:21.730Z,17.28
2018-07-08T05:03:21.719Z,17.32
2018-07-08T05:04:21.710Z,17.32
2018-07-08T05:05:21.700Z,17.35
2018-07-08T05:06:21.690Z,17.24
2018-07-08T05:07:21.679Z,17.21
2018-07-08T05:08:21.667Z,17.17
2018-07-08T05:09:21.657Z,17.18
2018-07-08T05:10:21.647Z,17.17
2018-07-08T05:11:21.636Z,17.21
2018-07-08T05:12:21.627Z,17.28
2018-07-08T05:13:21.617Z,17.20
2018-07-08T05:14:21.607Z,17.18
2018-07-08T05:15:21.596Z,17.18
2018-07-08T05:16:21.589Z,17.33
2018-07-08T05:17:21.574Z,17.30
2018-07-08T05:18:21.565Z,17.39
2018-07-08T05:19:21.556Z,17.30
2018-07-08T05:20:21.557Z,17.18
2018-07-08T05:21:21.535Z,17.30
2018-07-08T05:22:21.522Z,17.38
2018-07-08T05:23:21.512Z,17.33
2018-07-08T05:24:21.502Z,17.36
2018-07-08T05:25:21.492Z,17.36
2018-07-08T05:26:21.482Z,17.38
2018-07-08T05:27:21.476Z,17.43
2018-07-08T05:28:21.461Z,17.32
2018-07-08T05:29:21.449Z,17.28
2018-07-08T05:30:21.432Z,17.20
2018-07-08T05:31:21.420Z,17.05
2018-07-08T05:32:21.412Z,17.07
2018-07-08T05:33:21.399Z,17.18
2018-07-08T05:34:21.394Z,17.17
2018-07-08T05:35:21.378Z,17.24
2018-07-08T05:36:21.368Z,17.21
2018-07-08T05:37:21.357Z,17.18
2018-07-08T05:38:21.349Z,17.21
2018-07-08T05:39:21.337Z,17.22
2018-07-08T05:40:21.327Z,17.22
2018-07-08T05:41:21.316Z,17.14
2018-07-08T05:42:21.307Z,17.18
2018-07-08T05:43:21.295Z,17.18
2018-07-08T05:44:21.289Z,17.21
2018-07-08T05:45:21.274Z,17.20
2018-07-08T05:46:21.266Z,17.17
2018-07-08T05:47:21.254Z,17.10
2018-07-08T05:48:21.245Z,17.15
2018-07-08T05:49:21.232Z,17.07
2018-07-08T05:50:21.276Z,16.99
2018-07-08T05:51:21.211Z,16.88
2018-07-08T05:52:21.203Z,16.96
2018-07-08T05:53:21.191Z,16.99
2018-07-08T05:54:21.180Z,16.91
2018-07-08T05:55:21.170Z,16.96
2018-07-08T05:56:21.159Z,17.03
2018-07-08T05:57:21.148Z,16.90
2018-07-08T05:58:21.142Z,16.95
2018-07-08T05:59:21.127Z,16.98
2018-07-08T06:00:21.117Z,16.95
2018-07-08T06:01:21.106Z,17.02
2018-07-08T06:02:21.097Z,16.99
2018-07-08T06:03:21.086Z,16.95
2018-07-08T06:04:21.077Z,16.98
2018-07-08T06:05:21.065Z,16.99
2018-07-08T06:06:21.054Z,17.02
2018-07-08T06:07:21.044Z,17.02
2018-07-08T06:08:21.034Z,17.14
2018-07-08T06:09:21.022Z,17.09
2018-07-08T06:10:21.012Z,17.05
2018-07-08T06:11:21.002Z,17.06
2018-07-08T06:12:20.991Z,17.02
2018-07-08T06:13:20.979Z,17.05
2018-07-08T06:14:20.969Z,17.15
2018-07-08T06:15:21.018Z,17.14
2018-07-08T06:16:20.949Z,17.17
2018-07-08T06:17:20.937Z,17.24
2018-07-08T06:18:20.927Z,17.10
2018-07-08T06:19:20.917Z,17.20
2018-07-08T06:20:20.906Z,17.27
2018-07-08T06:21:20.901Z,17.21
2018-07-08T06:22:20.885Z,17.18
2018-07-08T06:23:20.875Z,17.15
2018-07-08T06:24:20.864Z,17.15
2018-07-08T06:25:20.854Z,17.32
2018-07-08T06:26:20.843Z,17.21
2018-07-08T06:27:20.832Z,17.27
2018-07-08T06:28:20.822Z,17.22
2018-07-08T06:29:20.815Z,17.32
2018-07-08T06:30:20.800Z,17.32
2018-07-08T06:31:20.792Z,17.33
2018-07-08T06:32:20.780Z,17.33
2018-07-08T06:33:20.768Z,17.33
2018-07-08T06:34:20.758Z,17.39
2018-07-08T06:35:20.748Z,17.36
2018-07-08T06:36:20.737Z,17.39
2018-07-08T06:37:20.726Z,17.35
2018-07-08T06:38:20.916Z,17.39
2018-07-08T06:39:20.706Z,17.39
2018-07-08T06:40:20.695Z,17.47
2018-07-08T06:41:20.684Z,17.42
2018-07-08T06:42:20.674Z,17.51
2018-07-08T06:43:20.663Z,17.40
2018-07-08T06:44:20.653Z,17.40
2018-07-08T06:45:20.642Z,17.43
2018-07-08T06:46:20.633Z,17.42
2018-07-08T06:47:20.622Z,17.46
2018-07-08T06:48:20.613Z,17.45
2018-07-08T06:49:20.600Z,17.45
2018-07-08T06:50:20.589Z,17.42
2018-07-08T06:51:20.580Z,17.38
2018-07-08T06:52:20.570Z,17.45
2018-07-08T06:53:20.558Z,17.42
2018-07-08T06:54:20.551Z,17.40
2018-07-08T06:55:20.538Z,17.40
2018-07-08T06:56:20.730Z,17.46
2018-07-08T06:57:20.516Z,17.45
2018-07-08T06:58:20.507Z,17.42
2018-07-08T06:59:20.506Z,17.46
2018-07-08T07:00:20.486Z,17.39
2018-07-08T07:01:20.475Z,17.51
2018-07-08T07:02:20.465Z,17.36
2018-07-08T07:03:20.455Z,17.35
2018-07-08T07:04:20.445Z,17.32
2018-07-08T07:05:20.439Z,17.35
2018-07-08T07:06:20.423Z,17.33
2018-07-08T07:07:20.413Z,17.30
2018-07-08T07:08:20.403Z,17.32
2018-07-08T07:09:20.392Z,17.30
2018-07-08T07:10:20.382Z,17.32
2018-07-08T07:11:20.371Z,17.30
2018-07-08T07:12:20.361Z,17.38
2018-07-08T07:13:20.350Z,17.30
2018-07-08T07:14:20.339Z,17.45
2018-07-08T07:15:20.329Z,17.33
2018-07-08T07:16:20.319Z,17.24
2018-07-08T07:17:20.325Z,17.27
2018-07-08T07:18:20.299Z,17.27
2018-07-08T07:19:20.287Z,17.25
2018-07-08T07:20:20.277Z,17.32
2018-07-08T07:21:20.267Z,17.18
2018-07-08T07:22:20.256Z,17.30
2018-07-08T07:23:20.245Z,17.20
2018-07-08T07:24:20.234Z,17.28
2018-07-08T07:25:20.223Z,17.24
2018-07-08T07:26:20.213Z,17.30
2018-07-08T07:27:20.203Z,17.28
2018-07-08T07:28:20.194Z,17.32
2018-07-08T07:29:20.182Z,17.20
2018-07-08T07:30:20.171Z,17.27
2018-07-08T07:31:20.161Z,17.20
2018-07-08T07:32:20.150Z,17.17
2018-07-08T07:33:20.138Z,17.25
2018-07-08T07:34:20.127Z,17.27
2018-07-08T07:35:20.118Z,17.27
2018-07-08T07:36:20.107Z,17.24
2018-07-08T07:37:20.112Z,17.28
2018-07-08T07:38:20.084Z,17.32
2018-07-08T07:39:20.075Z,17.30
2018-07-08T07:40:20.064Z,17.33
2018-07-08T07:41:20.053Z,17.32
2018-07-08T07:42:20.042Z,17.30
2018-07-08T07:43:20.032Z,17.33
2018-07-08T07:44:20.024Z,17.28
2018-07-08T07:45:20.012Z,17.28
2018-07-08T07:46:20.001Z,17.30
2018-07-08T07:47:19.991Z,17.38
2018-07-08T07:48:19.979Z,17.40
2018-07-08T07:49:19.967Z,17.36
2018-07-08T07:50:20.107Z,17.36
2018-07-08T07:51:19.991Z,17.39
2018-07-08T07:52:19.935Z,17.42
2018-07-08T07:53:19.924Z,17.38
2018-07-08T07:54:19.915Z,17.36
2018-07-08T07:55:19.903Z,17.32
2018-07-08T07:56:19.892Z,17.38
2018-07-08T07:57:19.883Z,17.35
2018-07-08T07:58:19.871Z,17.38
2018-07-08T07:59:19.860Z,17.39
2018-07-08T08:00:19.850Z,17.36
2018-07-08T08:01:19.840Z,17.35
2018-07-08T08:02:19.830Z,17.40
2018-07-08T08:03:19.817Z,17.45
2018-07-08T08:04:19.809Z,17.43
2018-07-08T08:05:19.799Z,17.36
2018-07-08T08:06:19.785Z,17.40
2018-07-08T08:07:19.776Z,17.43
2018-07-08T08:08:19.765Z,17.39
2018-07-08T08:09:19.753Z,17.43
2018-07-08T08:10:19.743Z,17.40
2018-07-08T08:11:19.732Z,17.40
2018-07-08T08:12:19.722Z,17.36
2018-07-08T08:13:19.710Z,17.42
2018-07-08T08:14:19.700Z,17.46
2018-07-08T08:15:19.690Z,17.42
2018-07-08T08:16:19.679Z,17.45
2018-07-08T08:17:19.668Z,17.42
2018-07-08T08:18:19.658Z,17.38
2018-07-08T08:19:19.648Z,17.47
2018-07-08T08:20:19.638Z,17.36
2018-07-08T08:21:19.626Z,17.43
2018-07-08T08:22:19.615Z,17.40
2018-07-08T08:23:19.605Z,17.42
2018-07-08T08:24:19.594Z,17.43
2018-07-08T08:25:19.583Z,17.40
2018-07-08T08:26:19.575Z,17.33
2018-07-08T08:27:19.563Z,17.28
2018-07-08T08:28:19.552Z,17.32
2018-07-08T08:29:19.541Z,17.33
2018-07-08T08:30:19.531Z,17.32
2018-07-08T08:31:19.521Z,17.28
2018-07-08T08:32:19.510Z,17.18
2018-07-08T08:33:19.499Z,17.20
2018-07-08T08:34:19.489Z,17.20
2018-07-08T08:35:19.478Z,17.28
2018-07-08T08:36:19.470Z,17.22
2018-07-08T08:37:19.457Z,17.17
2018-07-08T08:38:19.515Z,17.24
2018-07-08T08:39:19.436Z,17.17
2018-07-08T08:40:19.427Z,17.09
2018-07-08T08:41:19.418Z,16.95
2018-07-08T08:42:19.405Z,16.96
2018-07-08T08:43:19.395Z,17.00
2018-07-08T08:44:19.583Z,16.96
2018-07-08T08:45:19.372Z,16.92
2018-07-08T08:46:19.361Z,16.90
2018-07-08T08:47:19.351Z,16.98
2018-07-08T08:48:19.341Z,16.98
2018-07-08T08:49:19.330Z,16.98
2018-07-08T08:50:19.519Z,17.00
2018-07-08T08:51:19.309Z,17.00
2018-07-08T08:52:19.337Z,16.92
2018-07-08T08:53:19.287Z,17.00
2018-07-08T08:54:19.277Z,16.98
2018-07-08T08:55:19.268Z,17.00
2018-07-08T08:56:19.406Z,17.02
2018-07-08T08:57:19.244Z,16.99
2018-07-08T08:58:19.266Z,16.98
2018-07-08T08:59:19.223Z,16.95
2018-07-08T09:00:19.216Z,16.99
2018-07-08T09:01:19.201Z,17.00
2018-07-08T09:02:19.190Z,17.09
2018-07-08T09:03:19.180Z,16.95
2018-07-08T09:04:19.170Z,17.10
2018-07-08T09:05:19.160Z,17.06
2018-07-08T09:06:19.148Z,17.10
2018-07-08T09:07:19.137Z,17.06
2018-07-08T09:08:19.328Z,17.06
2018-07-08T09:09:19.116Z,17.05
2018-07-08T09:10:19.105Z,17.06
2018-07-08T09:11:19.096Z,16.99
2018-07-08T09:12:19.085Z,17.02
2018-07-08T09:13:19.073Z,16.98
2018-07-08T09:14:19.064Z,17.00
2018-07-08T09:15:19.052Z,16.96
2018-07-08T09:16:19.042Z,16.99
2018-07-08T09:17:19.040Z,17.02
2018-07-08T09:18:19.020Z,16.98
2018-07-08T09:19:19.009Z,17.00
2018-07-08T09:20:19.000Z,17.07
2018-07-08T09:21:18.987Z,17.07
2018-07-08T09:22:18.977Z,16.98
2018-07-08T09:23:18.966Z,16.92
2018-07-08T09:24:18.958Z,17.00
2018-07-08T09:25:18.945Z,17.06
2018-07-08T09:26:18.934Z,17.03
2018-07-08T09:27:18.924Z,16.98
2018-07-08T09:28:18.913Z,16.99
2018-07-08T09:29:18.909Z,17.06
2018-07-08T09:30:18.892Z,16.99
2018-07-08T09:31:18.881Z,16.98
2018-07-08T09:32:18.870Z,16.98
2018-07-08T09:33:18.859Z,17.03
2018-07-08T09:34:18.849Z,17.00
2018-07-08T09:35:18.838Z,16.99
2018-07-08T09:36:18.827Z,17.02
2018-07-08T09:37:18.816Z,17.03
2018-07-08T09:38:18.805Z,17.02
2018-07-08T09:39:18.927Z,17.02
2018-07-08T09:40:18.785Z,17.00
2018-07-08T09:41:18.773Z,17.06
2018-07-08T09:42:18.765Z,17.05
2018-07-08T09:43:18.753Z,17.03
2018-07-08T09:44:18.742Z,16.99
2018-07-08T09:45:18.731Z,16.95
2018-07-08T09:46:18.721Z,16.98
2018-07-08T09:47:18.710Z,16.87
2018-07-08T09:48:18.703Z,16.85
2018-07-08T09:49:18.688Z,16.85
2018-07-08T09:50:18.678Z,16.88
2018-07-08T09:51:18.671Z,16.88
2018-07-08T09:52:18.657Z,16.92
2018-07-08T09:53:18.645Z,16.88
2018-07-08T09:54:18.636Z,16.99
2018-07-08T09:55:18.625Z,16.98
2018-07-08T09:56:18.613Z,16.84
2018-07-08T09:57:18.602Z,16.88
2018-07-08T09:58:18.592Z,16.85
2018-07-08T09:59:18.583Z,16.96
2018-07-08T10:00:18.571Z,16.90
2018-07-08T10:01:18.560Z,16.81
2018-07-08T10:02:18.549Z,16.82
2018-07-08T10:03:18.539Z,16.81
2018-07-08T10:04:18.530Z,16.84
2018-07-08T10:05:18.517Z,16.82
2018-07-08T10:06:18.507Z,16.81
2018-07-08T10:07:18.496Z,16.88
2018-07-08T10:08:18.486Z,16.90
2018-07-08T10:09:18.475Z,16.85
2018-07-08T10:10:18.464Z,16.87
2018-07-08T10:11:18.457Z,16.88
2018-07-08T10:12:18.443Z,16.84
2018-07-08T10:13:18.431Z,16.82
2018-07-08T10:14:18.421Z,16.81
2018-07-08T10:15:18.412Z,16.84
2018-07-08T10:16:18.403Z,16.84
2018-07-08T10:17:18.388Z,16.88
2018-07-08T10:18:18.379Z,16.96
2018-07-08T10:19:18.423Z,16.92
2018-07-08T10:20:18.508Z,16.96
2018-07-08T10:21:18.387Z,16.99
2018-07-08T10:22:18.335Z,17.10
2018-07-08T10:23:18.327Z,17.07
2018-07-08T10:24:18.315Z,17.15
2018-07-08T10:25:18.309Z,17.14
2018-07-08T10:26:18.293Z,17.15
2018-07-08T10:27:18.287Z,17.17
2018-07-08T10:28:18.272Z,17.18
2018-07-08T10:29:18.261Z,17.12
2018-07-08T10:30:18.283Z,17.06
2018-07-08T10:31:18.240Z,17.17
2018-07-08T10:32:18.230Z,17.10
2018-07-08T10:33:18.219Z,17.17
2018-07-08T10:34:18.208Z,17.17
2018-07-08T10:35:18.198Z,17.17
2018-07-08T10:36:18.188Z,17.12
2018-07-08T10:37:18.176Z,17.21
2018-07-08T10:38:18.389Z,17.18
2018-07-08T10:39:18.156Z,17.20
2018-07-08T10:40:18.146Z,17.07
2018-07-08T10:41:18.137Z,17.14
2018-07-08T10:42:18.123Z,17.17
2018-07-08T10:43:18.164Z,17.17
2018-07-08T10:44:18.104Z,17.18
2018-07-08T10:45:18.091Z,17.22
2018-07-08T10:46:18.081Z,17.22
2018-07-08T10:47:18.072Z,17.18
2018-07-08T10:48:18.061Z,17.20
2018-07-08T10:49:18.051Z,17.18
2018-07-08T10:50:18.040Z,17.20
2018-07-08T10:51:18.029Z,17.17
2018-07-08T10:52:18.019Z,17.20
2018-07-08T10:53:18.008Z,17.18
2018-07-08T10:54:17.998Z,17.20
2018-07-08T10:55:17.999Z,17.18
2018-07-08T10:56:17.977Z,17.17
2018-07-08T10:57:17.967Z,17.15
2018-07-08T10:58:17.955Z,17.22
2018-07-08T10:59:17.945Z,17.18
2018-07-08T11:00:17.934Z,17.30
2018-07-08T11:01:17.923Z,17.21
2018-07-08T11:02:17.913Z,17.36
2018-07-08T11:03:17.902Z,17.39
2018-07-08T11:04:17.893Z,17.35
2018-07-08T11:05:17.881Z,17.33
2018-07-08T11:06:17.871Z,17.32
2018-07-08T11:07:17.860Z,17.32
2018-07-08T11:08:17.851Z,17.33
2018-07-08T11:09:17.839Z,17.39
2018-07-08T11:10:17.829Z,17.45
2018-07-08T11:11:17.819Z,17.45
2018-07-08T11:12:17.808Z,17.36
2018-07-08T11:13:17.798Z,17.47
2018-07-08T11:14:17.937Z,17.47
2018-07-08T11:15:17.779Z,17.46
2018-07-08T11:16:17.766Z,17.53
2018-07-08T11:17:17.755Z,17.54
2018-07-08T11:18:17.745Z,17.57
2018-07-08T11:19:17.735Z,17.66
2018-07-08T11:20:17.724Z,17.66
2018-07-08T11:21:17.714Z,17.65
2018-07-08T11:22:17.703Z,17.70
2018-07-08T11:23:17.691Z,17.73
2018-07-08T11:24:17.685Z,17.73
2018-07-08T11:25:17.672Z,17.73
2018-07-08T11:26:17.662Z,17.74
2018-07-08T11:27:17.653Z,17.76
2018-07-08T11:28:17.643Z,17.84
2018-07-08T11:29:17.630Z,17.79
2018-07-08T11:30:17.619Z,17.94
2018-07-08T11:31:17.610Z,17.87
2018-07-08T11:32:17.599Z,17.96
2018-07-08T11:33:17.588Z,17.95
2018-07-08T11:34:17.578Z,18.04
2018-07-08T11:35:17.568Z,18.13
2018-07-08T11:36:17.558Z,18.23
2018-07-08T11:37:17.550Z,18.32
2018-07-08T11:38:17.538Z,18.32
2018-07-08T11:39:17.528Z,18.39
2018-07-08T11:40:17.518Z,18.50
2018-07-08T11:41:17.508Z,18.66
2018-07-08T11:42:17.498Z,18.82
2018-07-08T11:43:17.489Z,18.89
2018-07-08T11:44:17.479Z,18.84
2018-07-08T11:45:17.469Z,18.91
2018-07-08T11:46:17.459Z,19.13
2018-07-08T11:47:17.450Z,19.25
2018-07-08T11:48:17.441Z,19.28
2018-07-08T11:49:17.431Z,19.30
2018-07-08T11:50:17.423Z,19.57
2018-07-08T11:51:17.414Z,19.68
2018-07-08T11:52:17.405Z,19.65
2018-07-08T11:53:17.395Z,19.89
2018-07-08T11:54:17.386Z,19.95
2018-07-08T11:55:17.429Z,20.07
2018-07-08T11:56:17.369Z,20.16
2018-07-08T11:57:17.359Z,20.38
2018-07-08T11:58:17.354Z,20.34
2018-07-08T11:59:17.343Z,20.50
2018-07-08T12:00:17.335Z,20.60
2018-07-08T12:01:17.326Z,20.66
2018-07-08T12:02:17.320Z,20.68
2018-07-08T12:03:17.310Z,20.56
2018-07-08T12:04:17.302Z,20.56
2018-07-08T12:05:17.294Z,20.35
2018-07-08T12:06:17.328Z,20.72
2018-07-08T12:07:17.277Z,20.81
2018-07-08T12:08:17.270Z,20.98
2018-07-08T12:09:17.270Z,21.19
2018-07-08T12:10:17.253Z,21.33
2018-07-08T12:11:17.245Z,21.31
2018-07-08T12:12:17.238Z,21.33
2018-07-08T12:13:17.229Z,21.40
2018-07-08T12:14:17.372Z,21.51
2018-07-08T12:15:17.217Z,21.58
2018-07-08T12:16:17.207Z,21.68
2018-07-08T12:17:17.199Z,21.81
2018-07-08T12:18:17.191Z,21.86
2018-07-08T12:19:17.186Z,21.89
2018-07-08T12:20:17.194Z,22.06
2018-07-08T12:21:17.188Z,22.19
2018-07-08T12:22:17.163Z,22.09
2018-07-08T12:23:17.156Z,22.14
2018-07-08T12:24:17.149Z,22.30
2018-07-08T12:25:17.141Z,22.38
2018-07-08T12:26:17.134Z,22.33
2018-07-08T12:27:17.127Z,22.45
2018-07-08T12:28:17.121Z,22.54
2018-07-08T12:29:17.112Z,22.60
2018-07-08T12:30:17.106Z,22.72
2018-07-08T12:31:17.100Z,22.70
2018-07-08T12:32:17.093Z,22.67
2018-07-08T12:33:17.094Z,22.64
2018-07-08T12:34:17.096Z,22.79
2018-07-08T12:35:17.074Z,22.70
2018-07-08T12:36:17.068Z,22.75
2018-07-08T12:37:17.059Z,22.93
2018-07-08T12:38:17.052Z,22.81
2018-07-08T12:39:17.053Z,22.78
2018-07-08T12:40:17.042Z,22.85
2018-07-08T12:41:17.035Z,22.91
2018-07-08T12:42:17.029Z,22.72
2018-07-08T12:43:17.020Z,22.69
2018-07-08T12:44:17.133Z,22.76
2018-07-08T12:45:17.007Z,22.86
2018-07-08T12:46:17.003Z,22.91
2018-07-08T12:47:16.997Z,22.81
2018-07-08T12:48:16.998Z,23.00
2018-07-08T12:49:17.001Z,22.94
2018-07-08T12:50:16.985Z,22.82
2018-07-08T12:51:16.984Z,22.97
2018-07-08T12:52:16.975Z,22.94